Time;durP1;ratioP1;P1;durP2;ratioP2;P2;SDS_P1;SDS_P2;PMS_P1;PMS_P2;Temp;Humidity;BMP_temperature;BMP_pressure;BME280_temperature;BME280_humidity;BME280_pressure;Samples;Min_cycle;Max_cycle;Signal;HPM_P1;HPM_P2
2022/03/10 00:02:31;;;;;;;103.23;42.63;;;0.50;99.90;;;;;;2601757;54;20030;31
2022/03/10 00:05:11;;;;;;;101.07;41.40;;;0.60;99.90;;;;;;2602099;54;20764;31
2022/03/10 00:07:49;;;;;;;93.77;41.43;;;0.60;99.90;;;;;;2602731;54;20029;31
2022/03/10 00:10:24;;;;;;;94.07;42.60;;;0.60;99.90;;;;;;2602034;54;20100;31
2022/03/10 00:13:00;;;;;;;86.90;40.60;;;0.50;99.90;;;;;;2602905;54;20022;31
2022/03/10 00:15:42;;;;;;;87.50;41.40;;;0.50;99.90;;;;;;2601945;54;20050;31
2022/03/10 00:18:18;;;;;;;75.60;39.22;;;0.60;99.90;;;;;;2601941;54;20121;31
2022/03/10 00:20:52;;;;;;;81.88;37.70;;;0.60;99.90;;;;;;2601708;54;20100;31
2022/03/10 00:23:30;;;;;;;84.45;40.60;;;0.70;99.90;;;;;;2601967;54;20046;31
2022/03/10 00:26:05;;;;;;;75.40;37.72;;;0.70;99.90;;;;;;2700312;39;20669;31
2022/03/10 00:28:42;;;;;;;69.32;34.42;;;0.70;99.90;;;;;;2602472;54;20931;31
2022/03/10 00:31:24;;;;;;;76.00;37.72;;;0.80;99.90;;;;;;2602055;54;20935;31
2022/03/10 00:34:04;;;;;;;80.68;38.92;;;0.80;99.90;;;;;;2701238;39;20481;31
2022/03/10 00:36:40;;;;;;;83.40;40.20;;;0.70;99.90;;;;;;2607639;46;20038;31
2022/03/10 00:39:15;;;;;;;;;;;0.70;99.90;;;;;;2602257;54;20916;31
2022/03/10 00:41:52;;;;;;;83.13;38.85;;;0.70;99.90;;;;;;2601838;54;19941;31
2022/03/10 00:44:29;;;;;;;89.88;41.72;;;0.70;99.90;;;;;;2602794;54;20039;31
2022/03/10 00:47:10;;;;;;;81.85;41.53;;;0.70;99.90;;;;;;2602795;54;20105;31
2022/03/10 00:49:45;;;;;;;82.10;44.20;;;0.70;99.90;;;;;;2602134;54;21939;31
2022/03/10 00:52:21;;;;;;;82.20;39.10;;;0.70;99.90;;;;;;2602431;54;20086;31
2022/03/10 00:54:57;;;;;;;83.50;41.00;;;0.70;99.90;;;;;;2620927;47;21163;31
2022/03/10 00:57:36;;;;;;;78.85;39.13;;;0.70;99.90;;;;;;2601615;54;20054;31
2022/03/10 01:00:16;;;;;;;78.50;37.83;;;0.70;99.90;;;;;;2602715;54;20906;31
2022/03/10 01:02:57;;;;;;;90.25;45.15;;;0.60;99.90;;;;;;2602483;54;20042;31
2022/03/10 01:05:33;;;;;;;93.63;45.20;;;0.70;99.90;;;;;;2602544;54;20881;31
2022/03/10 01:08:10;;;;;;;73.40;37.90;;;0.60;99.90;;;;;;2602585;54;20031;31
2022/03/10 01:10:47;;;;;;;80.03;38.88;;;0.60;99.90;;;;;;2602326;54;20049;31
2022/03/10 01:13:24;;;;;;;90.80;45.00;;;0.70;99.90;;;;;;2602596;54;20032;31
2022/03/10 01:15:59;;;;;;;85.18;41.33;;;0.70;99.90;;;;;;2602453;54;20022;31
2022/03/10 01:18:40;;;;;;;105.87;47.23;;;0.70;99.90;;;;;;2700767;39;21379;31
2022/03/10 01:21:14;;;;;;;91.40;42.60;;;0.80;99.90;;;;;;2602504;54;22379;31
2022/03/10 01:23:51;;;;;;;75.90;36.72;;;0.80;99.90;;;;;;2601958;54;20029;31
2022/03/10 01:26:29;;;;;;;72.05;34.33;;;0.80;99.90;;;;;;2601792;54;20034;31
2022/03/10 01:29:06;;;;;;;74.43;35.33;;;0.80;99.90;;;;;;2601800;54;20981;31
2022/03/10 01:31:41;;;;;;;80.28;37.30;;;0.90;99.90;;;;;;2620933;47;20117;31
2022/03/10 01:34:19;;;;;;;77.57;36.23;;;1.00;99.90;;;;;;2601844;54;20038;31
2022/03/10 01:36:57;;;;;;;73.70;35.07;;;1.00;99.90;;;;;;2602314;54;21153;31
2022/03/10 01:39:32;;;;;;;64.72;31.90;;;1.10;99.90;;;;;;2621207;47;20234;31
2022/03/10 01:42:08;;;;;;;61.63;30.20;;;1.20;99.90;;;;;;2603363;54;20830;31
2022/03/10 01:44:47;;;;;;;58.85;29.55;;;1.30;99.90;;;;;;2603234;54;20338;31
2022/03/10 01:47:22;;;;;;;59.35;29.17;;;1.40;99.90;;;;;;2608771;46;20089;31
2022/03/10 01:50:07;;;;;;;57.72;29.77;;;1.40;99.90;;;;;;2620444;46;20022;31
2022/03/10 01:52:44;;;;;;;59.80;28.53;;;1.50;99.90;;;;;;2603568;54;20866;31
2022/03/10 01:55:19;;;;;;;58.70;28.27;;;1.60;99.90;;;;;;2603179;54;20917;31
2022/03/10 01:57:58;;;;;;;51.93;27.70;;;1.60;99.90;;;;;;2700849;39;21404;31
2022/03/10 02:00:34;;;;;;;64.13;32.42;;;1.60;99.90;;;;;;2603198;54;20254;31
2022/03/10 02:03:10;;;;;;;57.13;29.73;;;1.70;99.90;;;;;;2616367;46;20908;31
2022/03/10 02:05:51;;;;;;;55.70;29.20;;;1.70;99.90;;;;;;2602650;54;20023;31
2022/03/10 02:11:20;;;;;;;59.85;29.17;;;1.80;99.90;;;;;;2603264;54;20030;31
2022/03/10 02:13:56;;;;;;;60.08;31.73;;;1.90;99.90;;;;;;2603206;54;20089;31
2022/03/10 02:19:27;;;;;;;52.50;29.03;;;2.00;99.90;;;;;;2602839;54;20026;31
2022/03/10 02:22:14;;;;;;;50.25;28.65;;;2.00;99.90;;;;;;2621329;46;20981;31
2022/03/10 02:24:51;;;;;;;59.88;27.90;;;2.10;99.90;;;;;;2602144;54;20157;31
2022/03/10 02:27:27;;;;;;;55.47;28.92;;;2.20;99.90;;;;;;2602241;54;20049;31
2022/03/10 02:30:05;;;;;;;59.65;30.50;;;2.20;99.90;;;;;;2621667;46;20033;31
2022/03/10 02:32:41;;;;;;;57.55;30.10;;;2.20;99.90;;;;;;2603049;54;20029;31
2022/03/10 02:35:17;;;;;;;58.70;29.98;;;2.20;99.90;;;;;;2621359;46;20866;31
2022/03/10 02:37:57;;;;;;;57.70;30.77;;;2.30;99.90;;;;;;2602843;54;20089;31
2022/03/10 02:40:35;;;;;;;60.10;30.58;;;2.20;99.90;;;;;;2602954;54;20981;31
2022/03/10 02:43:10;;;;;;;53.83;27.88;;;2.40;99.90;;;;;;2603033;54;20094;31
2022/03/10 02:45:45;;;;;;;55.55;31.05;;;2.30;99.90;;;;;;2603322;54;20026;31
2022/03/10 02:48:20;;;;;;;50.87;28.63;;;2.40;99.90;;;;;;2621783;46;20027;31
2022/03/10 02:50:55;;;;;;;54.17;29.87;;;2.40;99.90;;;;;;2621167;46;20030;31
2022/03/10 02:53:35;;;;;;;55.70;30.25;;;2.40;99.90;;;;;;2602973;54;20245;31
2022/03/10 02:56:09;;;;;;;54.77;30.10;;;2.30;99.90;;;;;;2602296;54;20096;31
2022/03/10 02:58:45;;;;;;;54.47;29.63;;;2.40;99.90;;;;;;2602177;54;20996;31
2022/03/10 03:01:21;;;;;;;55.50;32.40;;;2.40;99.90;;;;;;2602317;54;20485;31
2022/03/10 03:03:57;;;;;;;56.20;29.30;;;2.40;99.90;;;;;;2700728;39;21332;31
2022/03/10 03:06:34;;;;;;;56.20;31.05;;;2.40;99.90;;;;;;2603102;54;20838;31
2022/03/10 03:11:43;;;;;;;51.05;27.33;;;2.40;99.90;;;;;;2602450;54;20038;31
2022/03/10 03:14:22;;;;;;;56.53;30.67;;;2.40;99.90;;;;;;2603018;54;20870;31
2022/03/10 03:16:58;;;;;;;52.28;29.15;;;2.40;99.90;;;;;;2602977;54;20052;31
2022/03/10 03:19:36;;;;;;;57.50;32.42;;;2.30;99.90;;;;;;2617731;46;20149;31
2022/03/10 03:22:14;;;;;;;57.35;30.83;;;2.30;99.90;;;;;;2602756;54;21433;31
2022/03/10 03:24:50;;;;;;;48.95;29.13;;;2.30;99.90;;;;;;2620816;46;20030;31
2022/03/10 03:27:27;;;;;;;;;;;2.30;99.90;;;;;;2602226;54;19935;31
2022/03/10 03:30:04;;;;;;;51.30;28.13;;;2.30;99.90;;;;;;2602046;54;20400;31
2022/03/10 03:32:40;;;;;;;53.97;28.38;;;2.20;99.90;;;;;;2621354;46;20117;31
2022/03/10 03:35:16;;;;;;;47.05;27.40;;;2.20;99.90;;;;;;2602918;54;20897;31
2022/03/10 03:37:52;;;;;;;54.73;30.33;;;2.20;99.90;;;;;;2602805;54;20032;31
2022/03/10 03:40:27;;;;;;;49.03;27.80;;;2.20;99.90;;;;;;2602693;54;20058;31
2022/03/10 03:43:06;;;;;;;60.67;33.03;;;2.20;99.90;;;;;;2602133;54;20060;31
2022/03/10 03:45:40;;;;;;;49.20;29.95;;;2.20;99.90;;;;;;2613068;46;21847;31
2022/03/10 03:48:16;;;;;;;52.95;29.30;;;2.20;99.90;;;;;;2601920;54;20941;31
2022/03/10 03:50:52;;;;;;;55.15;30.08;;;2.20;99.90;;;;;;2601635;54;20053;31
2022/03/10 03:53:28;;;;;;;53.87;32.53;;;2.20;99.90;;;;;;2602636;54;20488;31
2022/03/10 03:56:03;;;;;;;;;;;2.20;99.90;;;;;;2602992;54;21483;31
2022/03/10 03:58:41;;;;;;;65.80;34.35;;;2.20;99.90;;;;;;2602996;54;20679;31
2022/03/10 04:01:21;;;;;;;63.20;33.72;;;2.10;99.90;;;;;;2602689;54;20026;31
2022/03/10 04:03:57;;;;;;;57.80;29.88;;;2.10;99.90;;;;;;2602827;54;20787;31
2022/03/10 04:06:32;;;;;;;60.15;31.95;;;2.20;99.90;;;;;;2602852;54;20944;31
2022/03/10 04:09:09;;;;;;;54.53;30.48;;;2.20;99.90;;;;;;2602611;54;21002;31
2022/03/10 04:11:43;;;;;;;46.15;25.77;;;2.10;99.90;;;;;;2602696;54;20893;31
2022/03/10 04:14:25;;;;;;;48.30;29.27;;;2.30;99.90;;;;;;2602719;54;20101;31
2022/03/10 04:17:01;;;;;;;51.77;30.53;;;2.40;99.90;;;;;;2602444;54;20947;31
2022/03/10 04:19:36;;;;;;;51.60;28.50;;;2.40;99.90;;;;;;2601966;54;20310;31
2022/03/10 04:22:14;;;;;;;53.10;30.25;;;2.30;99.90;;;;;;2602206;54;20981;31
2022/03/10 04:24:49;;;;;;;49.47;28.50;;;2.30;99.90;;;;;;2602549;54;20933;31
2022/03/10 04:27:29;;;;;;;46.35;27.88;;;2.30;99.90;;;;;;2602621;54;20522;31
2022/03/10 04:30:09;;;;;;;41.38;26.50;;;2.20;99.90;;;;;;2602016;54;20904;31
2022/03/10 04:32:45;;;;;;;42.88;26.55;;;2.10;99.90;;;;;;2602045;54;20939;31
2022/03/10 04:35:21;;;;;;;40.05;24.75;;;2.10;99.90;;;;;;2602906;54;20123;31
2022/03/10 04:38:01;;;;;;;41.92;23.80;;;2.00;99.90;;;;;;2621183;46;20570;31
2022/03/10 04:40:38;;;;;;;39.08;22.95;;;2.00;99.90;;;;;;2621384;46;20128;31
2022/03/10 04:43:14;;;;;;;37.25;23.75;;;2.00;99.90;;;;;;2602778;54;20910;31
2022/03/10 04:45:52;;;;;;;44.60;24.73;;;1.90;99.90;;;;;;2620957;47;20081;31
2022/03/10 04:48:28;;;;;;;34.70;18.83;;;1.80;99.90;;;;;;2602012;54;20072;31
2022/03/10 04:51:06;;;;;;;38.88;22.17;;;1.90;99.90;;;;;;2602553;54;20242;31
2022/03/10 04:53:41;;;;;;;35.05;20.65;;;1.70;99.90;;;;;;2613353;47;20038;31
2022/03/10 04:56:16;;;;;;;41.20;22.75;;;1.80;99.90;;;;;;2602591;54;20022;31
2022/03/10 04:58:57;;;;;;;37.15;21.63;;;1.70;99.90;;;;;;2790739;31;20635;31
2022/03/10 05:01:35;;;;;;;38.75;22.35;;;1.70;99.90;;;;;;2772070;31;20605;31
2022/03/10 05:04:13;;;;;;;38.90;21.50;;;1.70;99.90;;;;;;2602773;54;20026;31
2022/03/10 05:06:50;;;;;;;32.43;18.93;;;1.60;99.90;;;;;;2601855;54;20250;31
2022/03/10 05:09:28;;;;;;;30.37;19.17;;;1.60;99.90;;;;;;2602030;54;22083;31
2022/03/10 05:12:06;;;;;;;28.65;17.60;;;1.60;99.90;;;;;;2772342;31;20528;31
2022/03/10 05:14:44;;;;;;;30.00;17.70;;;1.50;99.90;;;;;;2701662;39;20596;31
2022/03/10 05:17:23;;;;;;;34.50;19.52;;;1.50;99.90;;;;;;2603288;54;20064;31
2022/03/10 05:19:59;;;;;;;31.93;19.57;;;1.50;99.90;;;;;;2621870;46;20052;31
2022/03/10 05:22:45;;;;;;;28.67;18.50;;;1.50;99.90;;;;;;2602488;54;21198;31
2022/03/10 05:25:19;;;;;;;133.60;77.40;;;1.40;99.90;;;;;;2603459;54;22521;31
2022/03/10 05:27:54;;;;;;;131.93;80.97;;;1.50;99.90;;;;;;2603321;54;21213;31
2022/03/10 05:30:30;;;;;;;159.80;102.90;;;1.40;99.90;;;;;;2602760;54;21146;31
2022/03/10 05:33:10;;;;;;;126.38;78.15;;;1.50;99.90;;;;;;2603254;54;20569;31
2022/03/10 05:35:48;;;;;;;96.53;62.15;;;1.40;99.90;;;;;;2603204;54;20045;31
2022/03/10 05:38:25;;;;;;;59.08;45.38;;;1.40;99.90;;;;;;2621669;46;22507;31
2022/03/10 05:41:00;;;;;;;28.05;19.25;;;1.40;99.90;;;;;;2602363;54;20028;31
2022/03/10 05:43:37;;;;;;;30.53;16.87;;;1.40;99.90;;;;;;2603304;54;20026;31
2022/03/10 05:46:13;;;;;;;24.67;15.97;;;1.40;99.90;;;;;;2602587;54;20589;31
2022/03/10 05:48:55;;;;;;;25.92;15.30;;;1.40;99.90;;;;;;2603148;54;21161;31
2022/03/10 05:51:36;;;;;;;25.65;14.60;;;1.40;99.90;;;;;;2602357;54;20864;31
2022/03/10 05:54:14;;;;;;;24.05;14.43;;;1.40;99.90;;;;;;2603270;54;20881;31
2022/03/10 05:56:52;;;;;;;41.53;30.63;;;1.50;99.90;;;;;;2603033;54;20870;31
2022/03/10 05:59:28;;;;;;;77.53;60.88;;;1.50;99.90;;;;;;2603021;54;21209;31
2022/03/10 06:02:08;;;;;;;;;;;1.70;99.90;;;;;;2603406;54;21167;31
2022/03/10 06:04:50;;;;;;;205.50;108.67;;;2.00;99.90;;;;;;2622129;46;19943;31
2022/03/10 06:07:26;;;;;;;343.50;144.05;;;2.30;99.90;;;;;;2603533;54;20282;31
2022/03/10 06:10:01;;;;;;;;;;;2.60;99.90;;;;;;2603331;54;20057;31
2022/03/10 06:12:41;;;;;;;137.35;63.42;;;2.90;99.90;;;;;;2621797;46;20765;31
2022/03/10 06:15:17;;;;;;;141.07;65.60;;;3.20;99.90;;;;;;2603227;54;21621;31
2022/03/10 06:17:54;;;;;;;118.95;54.45;;;3.40;99.90;;;;;;2621550;46;20238;31
2022/03/10 06:20:35;;;;;;;101.95;47.53;;;3.80;99.90;;;;;;2602946;54;20030;31
2022/03/10 06:23:09;;;;;;;47.07;25.77;;;4.30;99.90;;;;;;2603222;54;20848;31
2022/03/10 06:25:49;;;;;;;52.13;28.50;;;4.70;99.90;;;;;;2602539;54;20055;31
2022/03/10 06:28:25;;;;;;;61.90;33.40;;;5.10;99.90;;;;;;2603285;54;20821;31
2022/03/10 06:31:05;;;;;;;;;;;5.50;99.90;;;;;;2603414;54;20910;31
2022/03/10 06:33:41;;;;;;;27.00;17.40;;;5.60;99.90;;;;;;2700566;39;20440;31
2022/03/10 06:36:20;;;;;;;24.00;14.80;;;5.50;99.90;;;;;;2602190;54;21144;31
2022/03/10 06:38:56;;;;;;;24.40;16.25;;;5.40;99.90;;;;;;2603216;54;20922;31
2022/03/10 06:41:32;;;;;;;22.10;14.45;;;5.50;99.90;;;;;;2602885;54;20756;31
2022/03/10 06:44:07;;;;;;;24.95;14.90;;;5.60;99.90;;;;;;2602992;54;20904;31
2022/03/10 06:46:43;;;;;;;32.90;21.90;;;5.40;99.90;;;;;;2621094;46;20033;31
2022/03/10 06:49:21;;;;;;;22.25;14.50;;;5.20;99.90;;;;;;2602906;54;20037;31
2022/03/10 06:52:00;;;;;;;22.30;15.87;;;5.40;99.90;;;;;;2621499;46;20585;31
2022/03/10 06:54:37;;;;;;;23.13;14.27;;;5.70;99.90;;;;;;2621187;46;20042;31
2022/03/10 06:57:15;;;;;;;22.25;14.43;;;6.20;99.90;;;;;;2602849;54;20034;31
2022/03/10 06:59:51;;;;;;;20.13;13.93;;;6.40;99.90;;;;;;2603194;54;20840;31
2022/03/10 07:02:26;;;;;;;20.88;13.68;;;6.50;99.90;;;;;;2603149;54;20991;31
2022/03/10 07:05:04;;;;;;;25.85;14.48;;;6.70;99.90;;;;;;2602803;54;20026;31
2022/03/10 07:07:43;;;;;;;24.20;14.85;;;6.90;99.90;;;;;;2603111;54;22504;31
2022/03/10 07:10:19;;;;;;;20.35;13.50;;;7.00;99.90;;;;;;2602971;54;20026;31
2022/03/10 07:12:55;;;;;;;;;;;7.30;99.90;;;;;;2621579;46;20161;31
2022/03/10 07:15:30;;;;;;;19.65;12.60;;;7.40;99.90;;;;;;2602764;54;19998;31
2022/03/10 07:18:06;;;;;;;21.23;11.60;;;7.50;99.90;;;;;;2602949;54;20022;31
2022/03/10 07:23:17;;;;;;;17.52;10.52;;;7.70;99.90;;;;;;2602972;54;20834;31
2022/03/10 07:25:53;;;;;;;18.37;10.10;;;7.70;99.90;;;;;;2621218;46;20037;31
2022/03/10 07:28:29;;;;;;;14.32;9.20;;;7.70;99.90;;;;;;2700405;39;20524;31
2022/03/10 07:31:04;;;;;;;;;;;7.70;99.90;;;;;;2602502;54;20038;31
2022/03/10 07:33:40;;;;;;;15.18;8.45;;;7.70;99.90;;;;;;2621301;46;20732;31
2022/03/10 07:36:16;;;;;;;14.05;7.55;;;7.80;99.90;;;;;;2700942;39;20501;31
2022/03/10 07:38:54;;;;;;;15.87;7.60;;;7.90;99.90;;;;;;2602653;54;20137;31
2022/03/10 07:41:30;;;;;;;10.75;6.60;;;7.90;99.90;;;;;;2602717;54;20275;31
2022/03/10 07:44:07;;;;;;;16.95;7.72;;;7.80;99.90;;;;;;2602817;54;20745;31
2022/03/10 07:46:50;;;;;;;13.60;8.05;;;7.90;99.90;;;;;;2606448;46;20026;31
2022/03/10 07:49:26;;;;;;;14.27;6.93;;;8.00;99.90;;;;;;2602927;54;20108;31
2022/03/10 07:52:02;;;;;;;9.90;6.50;;;8.20;99.90;;;;;;2602516;54;20030;31
2022/03/10 07:54:42;;;;;;;10.95;6.05;;;8.20;99.90;;;;;;2602687;54;20770;31
2022/03/10 07:57:18;;;;;;;11.07;7.13;;;8.40;99.90;;;;;;2601868;54;20908;31
2022/03/10 07:59:53;;;;;;;12.35;7.03;;;8.20;99.90;;;;;;2602045;54;20743;31
2022/03/10 08:02:29;;;;;;;12.30;7.00;;;8.30;99.90;;;;;;2602424;54;20921;31
2022/03/10 08:05:04;;;;;;;11.65;7.00;;;8.30;99.90;;;;;;2602532;54;20824;31
2022/03/10 08:07:40;;;;;;;13.33;7.67;;;8.40;99.90;;;;;;2621469;46;20026;31
2022/03/10 08:10:19;;;;;;;10.32;6.97;;;8.70;99.90;;;;;;2621209;46;21006;31
2022/03/10 08:12:55;;;;;;;13.02;7.53;;;8.50;99.90;;;;;;2601725;54;20161;31
2022/03/10 08:15:36;;;;;;;14.60;6.90;;;8.40;99.90;;;;;;2601806;54;20750;31
2022/03/10 08:18:13;;;;;;;;;;;8.30;99.80;;;;;;2719315;39;20581;31
2022/03/10 08:20:50;;;;;;;;;;;8.10;99.70;;;;;;2621771;46;20677;31
2022/03/10 08:23:26;;;;;;;13.20;8.67;;;8.20;99.90;;;;;;2620874;46;19934;31
2022/03/10 08:26:08;;;;;;;12.20;8.10;;;8.20;99.90;;;;;;2602608;54;20886;31
2022/03/10 08:28:50;;;;;;;15.25;7.78;;;8.20;99.90;;;;;;2620586;46;20030;31
2022/03/10 08:31:28;;;;;;;12.45;6.63;;;8.30;99.90;;;;;;2719127;39;20405;31
2022/03/10 08:34:08;;;;;;;14.37;7.73;;;8.40;99.80;;;;;;2601841;54;20041;31
2022/03/10 08:36:44;;;;;;;12.13;7.80;;;8.60;99.50;;;;;;2601863;54;20129;31
2022/03/10 08:39:22;;;;;;;11.35;7.13;;;8.80;99.30;;;;;;2620625;46;20086;31
2022/03/10 08:42:06;;;;;;;9.60;5.83;;;8.70;97.30;;;;;;2602484;54;20841;31
2022/03/10 08:44:43;;;;;;;10.87;6.37;;;8.80;96.20;;;;;;2602542;54;20767;31
2022/03/10 08:47:25;;;;;;;9.60;6.75;;;8.60;95.00;;;;;;2621231;47;20879;31
2022/03/10 08:50:02;;;;;;;10.15;6.60;;;8.40;94.60;;;;;;2603118;54;20033;31
2022/03/10 08:52:37;;;;;;;10.15;6.65;;;8.30;95.10;;;;;;2603201;54;20037;31
2022/03/10 08:55:13;;;;;;;9.75;6.28;;;8.20;95.50;;;;;;2603437;54;21452;31
2022/03/10 08:57:55;;;;;;;10.43;7.27;;;8.30;94.50;;;;;;2603215;54;20878;31
2022/03/10 09:00:32;;;;;;;7.93;5.43;;;8.30;93.90;;;;;;2603253;54;20058;31
2022/03/10 09:03:10;;;;;;;8.07;5.50;;;8.30;93.30;;;;;;2701727;39;20721;31
2022/03/10 09:05:46;;;;;;;8.15;5.07;;;8.40;92.20;;;;;;2612516;46;20038;31
2022/03/10 09:08:23;;;;;;;8.43;5.10;;;8.20;90.60;;;;;;2603328;54;20033;31
2022/03/10 09:11:02;;;;;;;9.05;5.20;;;8.20;90.90;;;;;;2603430;54;20774;31
2022/03/10 09:13:44;;;;;;;8.30;5.10;;;8.20;91.20;;;;;;2602923;54;20081;31
2022/03/10 09:16:18;;;;;;;12.65;5.07;;;8.20;91.40;;;;;;2603496;54;20048;31
2022/03/10 09:18:55;;;;;;;12.15;5.70;;;8.10;91.00;;;;;;2621838;46;20872;31
2022/03/10 09:21:33;;;;;;;7.50;4.80;;;8.00;91.70;;;;;;2602702;54;20727;31
2022/03/10 09:24:11;;;;;;;9.57;5.05;;;8.00;90.00;;;;;;2602668;54;20031;31
2022/03/10 09:26:49;;;;;;;10.38;5.22;;;8.10;89.70;;;;;;2603364;54;20027;31
2022/03/10 09:29:31;;;;;;;7.80;4.95;;;8.20;90.80;;;;;;2603042;54;20837;31
2022/03/10 09:32:09;;;;;;;8.95;5.35;;;8.30;88.40;;;;;;2603131;54;20038;31
2022/03/10 09:34:46;;;;;;;10.85;5.03;;;8.50;90.10;;;;;;2603309;54;21135;31
2022/03/10 09:37:23;;;;;;;21.80;11.15;;;8.40;88.70;;;;;;2602478;54;20084;31
2022/03/10 09:39:58;;;;;;;22.27;14.13;;;8.50;87.00;;;;;;2602615;54;20036;31
2022/03/10 09:42:35;;;;;;;9.10;5.20;;;8.60;85.50;;;;;;2700693;39;20417;31
2022/03/10 09:45:13;;;;;;;9.38;6.00;;;8.50;86.10;;;;;;2603065;54;20838;31
2022/03/10 09:47:51;;;;;;;7.87;5.20;;;8.40;87.30;;;;;;2621316;46;20742;31
2022/03/10 09:50:30;;;;;;;7.13;4.63;;;8.30;87.40;;;;;;2603284;54;20886;31
2022/03/10 09:53:05;;;;;;;9.25;5.25;;;8.30;84.70;;;;;;2603049;54;20838;31
2022/03/10 09:55:42;;;;;;;8.65;5.07;;;8.10;85.00;;;;;;2602934;54;20739;31
2022/03/10 09:58:20;;;;;;;10.52;4.55;;;8.30;88.70;;;;;;2603075;54;20171;31
2022/03/10 10:00:56;;;;;;;8.80;4.90;;;8.20;84.40;;;;;;2602986;54;20030;31
2022/03/10 10:03:36;;;;;;;9.88;4.95;;;8.00;84.10;;;;;;2602201;54;20039;31
2022/03/10 10:06:15;;;;;;;7.47;4.78;;;8.30;85.40;;;;;;2603087;54;20030;31
2022/03/10 10:08:57;;;;;;;8.05;5.30;;;8.30;84.30;;;;;;2602372;54;20861;31
2022/03/10 10:11:33;;;;;;;7.60;4.90;;;8.10;81.70;;;;;;2621175;46;20567;31
2022/03/10 10:14:11;;;;;;;9.27;5.70;;;8.20;83.40;;;;;;2603240;54;20813;31
2022/03/10 10:16:50;;;;;;;7.27;4.87;;;8.30;85.40;;;;;;2621431;46;20569;31
2022/03/10 10:19:30;;;;;;;9.52;5.55;;;8.20;84.20;;;;;;2602133;54;20033;31
2022/03/10 10:22:12;;;;;;;10.20;5.63;;;8.30;85.00;;;;;;2602715;54;20085;31
2022/03/10 10:24:51;;;;;;;8.40;5.10;;;8.30;86.90;;;;;;2621162;46;20093;31
2022/03/10 10:27:27;;;;;;;10.23;5.38;;;8.40;83.50;;;;;;2602143;54;20065;31
2022/03/10 10:30:05;;;;;;;7.80;5.70;;;8.40;86.90;;;;;;2602863;54;20023;31
2022/03/10 10:32:49;;;;;;;8.27;4.63;;;8.50;83.20;;;;;;2603048;54;20032;31
2022/03/10 10:35:29;;;;;;;7.85;4.65;;;8.50;80.20;;;;;;2621322;46;20241;31
2022/03/10 10:40:36;;;;;;;7.60;5.18;;;8.40;82.20;;;;;;2621191;46;20285;31
2022/03/10 10:43:13;;;;;;;9.13;4.55;;;8.50;81.30;;;;;;2602799;54;20094;31
2022/03/10 10:45:52;;;;;;;6.83;4.43;;;8.30;76.90;;;;;;2602896;54;21441;31
2022/03/10 10:48:31;;;;;;;10.45;5.30;;;8.20;78.40;;;;;;2602880;54;21431;31
2022/03/10 10:51:13;;;;;;;6.97;4.30;;;7.90;78.40;;;;;;2602988;54;20038;31
2022/03/10 10:53:46;;;;;;;10.30;4.95;;;7.90;76.30;;;;;;2602936;54;20081;31
2022/03/10 10:56:22;;;;;;;6.47;4.90;;;7.70;75.70;;;;;;2603116;54;20082;31
2022/03/10 10:59:01;;;;;;;8.82;5.32;;;7.80;78.40;;;;;;2602882;54;20239;31
2022/03/10 11:01:37;;;;;;;8.77;5.77;;;7.90;79.50;;;;;;2601988;54;20865;31
2022/03/10 11:04:16;;;;;;;7.40;4.47;;;7.90;80.30;;;;;;2701472;39;21573;31
2022/03/10 11:06:58;;;;;;;8.10;4.90;;;7.80;77.80;;;;;;2602823;54;20057;31
2022/03/10 11:09:35;;;;;;;8.85;4.60;;;7.80;77.60;;;;;;2701359;39;20504;31
2022/03/10 11:12:13;;;;;;;10.65;5.53;;;7.90;78.20;;;;;;2602723;54;20882;31
2022/03/10 11:14:52;;;;;;;9.60;5.70;;;8.00;79.70;;;;;;2602865;54;21875;31
2022/03/10 11:17:28;;;;;;;9.07;6.30;;;7.70;77.00;;;;;;2701044;39;20381;31
2022/03/10 11:20:07;;;;;;;9.10;5.65;;;7.60;78.10;;;;;;2603024;54;20097;31
2022/03/10 11:22:52;;;;;;;9.27;5.97;;;7.40;77.80;;;;;;2603027;54;20090;31
2022/03/10 11:25:36;;;;;;;13.30;7.77;;;7.20;80.10;;;;;;2602487;54;20648;31
2022/03/10 11:28:14;;;;;;;10.67;6.83;;;7.30;79.00;;;;;;2621213;46;20058;31
2022/03/10 11:30:57;;;;;;;10.57;6.93;;;7.20;80.60;;;;;;2603185;54;20864;31
2022/03/10 11:33:32;;;;;;;13.13;7.18;;;7.20;81.10;;;;;;2602167;54;20030;31
2022/03/10 11:36:22;;;;;;;12.15;7.15;;;7.20;80.30;;;;;;2719569;39;20600;31
2022/03/10 11:39:01;;;;;;;14.13;6.78;;;7.20;79.80;;;;;;2602810;54;20773;31
2022/03/10 11:41:44;;;;;;;12.98;7.38;;;7.20;81.00;;;;;;2602773;54;20037;31
2022/03/10 11:44:22;;;;;;;9.15;6.57;;;7.00;79.60;;;;;;2602661;54;20098;31
2022/03/10 11:46:59;;;;;;;11.33;6.60;;;7.00;78.70;;;;;;2602860;54;20026;31
2022/03/10 11:49:42;;;;;;;9.52;6.25;;;6.80;79.60;;;;;;2602571;54;20045;31
2022/03/10 11:52:27;;;;;;;14.50;6.15;;;6.80;79.30;;;;;;2602707;54;20073;31
2022/03/10 11:55:12;;;;;;;8.45;5.70;;;6.70;79.50;;;;;;2602496;54;20934;31
2022/03/10 11:58:04;;;;;;;12.70;7.03;;;6.70;80.30;;;;;;2602619;54;20030;31
2022/03/10 12:00:38;;;;;;;11.57;5.88;;;6.70;79.30;;;;;;2602661;54;20049;31
2022/03/10 12:03:29;;;;;;;7.80;5.07;;;6.60;80.20;;;;;;2602228;54;20027;31
2022/03/10 12:06:05;;;;;;;8.07;5.73;;;6.60;78.40;;;;;;2602674;54;20038;31
2022/03/10 12:08:40;;;;;;;8.03;5.07;;;6.70;79.30;;;;;;2602820;54;20034;31
2022/03/10 12:11:22;;;;;;;7.90;4.90;;;6.60;78.50;;;;;;2602678;54;20090;31
2022/03/10 12:14:00;;;;;;;8.95;5.50;;;6.50;76.30;;;;;;2602826;54;20955;31
2022/03/10 12:16:43;;;;;;;9.40;5.80;;;6.50;77.10;;;;;;2601786;54;20516;31
2022/03/10 12:19:18;;;;;;;8.25;4.95;;;6.40;77.40;;;;;;2602383;46;20796;31
2022/03/10 12:21:54;;;;;;;7.30;4.95;;;6.40;77.70;;;;;;2601859;54;20035;31
2022/03/10 12:24:36;;;;;;;6.80;4.22;;;6.40;78.80;;;;;;2601786;54;20038;31
2022/03/10 12:27:16;;;;;;;12.85;5.20;;;6.30;77.50;;;;;;2699828;39;20386;31
2022/03/10 12:29:53;;;;;;;10.35;4.53;;;6.30;78.80;;;;;;2602624;54;20844;31
2022/03/10 12:32:30;;;;;;;13.68;6.43;;;6.30;77.00;;;;;;2601721;54;20563;31
2022/03/10 12:35:06;;;;;;;9.40;5.70;;;6.20;77.40;;;;;;2601749;54;20040;31
2022/03/10 12:37:41;;;;;;;9.52;6.20;;;6.10;77.20;;;;;;2601916;54;20749;31
2022/03/10 12:40:21;;;;;;;9.30;5.33;;;6.00;76.30;;;;;;2621116;46;20038;31
2022/03/10 12:43:06;;;;;;;8.70;5.35;;;6.00;77.30;;;;;;2621209;46;20027;31
2022/03/10 12:45:45;;;;;;;9.10;5.20;;;6.10;77.10;;;;;;2602633;54;20137;31
2022/03/10 12:48:24;;;;;;;11.13;7.38;;;6.00;76.20;;;;;;2620770;46;20596;31
2022/03/10 12:50:59;;;;;;;24.43;14.80;;;6.00;76.70;;;;;;2602548;54;20026;31
2022/03/10 12:53:39;;;;;;;23.88;14.73;;;6.00;75.60;;;;;;2602394;54;20035;31
2022/03/10 12:56:23;;;;;;;14.10;7.80;;;6.00;78.00;;;;;;2602380;54;20767;31
2022/03/10 12:59:01;;;;;;;;;;;6.00;78.60;;;;;;2602852;54;20912;31
2022/03/10 13:01:39;;;;;;;73.40;34.80;;;5.90;79.20;;;;;;2602419;54;20644;31
2022/03/10 13:07:02;;;;;;;305.05;121.50;;;5.80;79.80;;;;;;2602319;54;21860;31
2022/03/10 13:09:40;;;;;;;275.90;116.17;;;5.90;79.80;;;;;;2602314;54;20937;31
2022/03/10 13:12:17;;;;;;;471.23;196.98;;;5.80;79.70;;;;;;2620426;47;20105;31
2022/03/10 13:14:59;;;;;;;517.83;185.85;;;5.90;79.50;;;;;;2602333;54;20027;31
2022/03/10 13:17:36;;;;;;;663.78;276.65;;;5.90;75.20;;;;;;2602375;54;20027;31
2022/03/10 13:20:19;;;;;;;607.75;287.55;;;5.80;74.40;;;;;;2621001;47;20030;31
2022/03/10 13:22:59;;;;;;;47.60;18.15;;;5.80;74.80;;;;;;2602437;54;20824;31
2022/03/10 13:25:43;;;;;;;99.50;22.05;;;5.80;74.00;;;;;;2700715;39;20392;31
2022/03/10 13:28:24;;;;;;;272.95;117.20;;;5.70;73.50;;;;;;2602726;54;20026;31
2022/03/10 13:31:03;;;;;;;231.27;92.97;;;5.70;75.40;;;;;;2601474;54;20745;31
2022/03/10 13:33:40;;;;;;;265.45;112.18;;;5.70;74.60;;;;;;2602379;54;20029;31
2022/03/10 13:36:20;;;;;;;109.00;39.00;;;5.60;74.10;;;;;;2603206;54;20089;31
2022/03/10 13:38:55;;;;;;;177.75;65.85;;;5.50;75.20;;;;;;2720146;39;20500;31
2022/03/10 13:41:30;;;;;;;428.88;179.07;;;5.50;74.40;;;;;;2603239;54;20792;31
2022/03/10 13:44:45;;;;;;;125.25;50.75;;;5.50;74.90;;;;;;2603177;54;20026;31
2022/03/10 13:47:25;;;;;;;115.90;39.67;;;5.50;74.50;;;;;;2603014;54;20864;31
2022/03/10 13:50:00;;;;;;;34.95;13.43;;;5.40;75.70;;;;;;2602489;54;21014;31
2022/03/10 13:52:38;;;;;;;39.42;14.82;;;5.40;74.90;;;;;;2617917;46;20032;31
2022/03/10 13:55:15;;;;;;;;;;;5.40;74.30;;;;;;2621931;46;20031;31
2022/03/10 13:57:51;;;;;;;69.90;31.75;;;5.40;75.20;;;;;;2603139;54;20784;31
2022/03/10 14:00:28;;;;;;;12.60;6.70;;;5.40;76.30;;;;;;2603064;54;20818;31
2022/03/10 14:03:10;;;;;;;;;;;5.40;76.40;;;;;;2603384;54;20865;31
2022/03/10 14:05:46;;;;;;;114.13;44.53;;;5.40;76.90;;;;;;2701396;39;20413;31
2022/03/10 14:08:23;;;;;;;14.50;7.95;;;5.40;76.90;;;;;;2602856;54;20026;31